sensor_id;sensor_type;location;lat;lon;timestamp;pressure;altitude;pressure_sealevel;temperature;humidity
30614;BME280;17381;51.690;5.270;2023-01-26T03:38:30;102432.28;;;-0.08;92.82
30614;BME280;17381;51.690;5.270;2023-01-26T03:41:04;102427.28;;;-0.03;92.67
30614;BME280;17381;51.690;5.270;2023-01-26T03:44:01;102427.44;;;0.00;92.56
30614;BME280;17381;51.690;5.270;2023-01-26T03:46:54;102412.50;;;-0.07;92.14
30614;BME280;17381;51.690;5.270;2023-01-26T03:49:47;102430.94;;;0.02;92.36
30614;BME280;17381;51.690;5.270;2023-01-26T04:38:33;102427.66;;;0.26;93.03
30614;BME280;17381;51.690;5.270;2023-01-26T04:41:48;102430.31;;;0.27;92.78
30614;BME280;17381;51.690;5.270;2023-01-26T04:44:43;102424.38;;;0.30;92.73
30614;BME280;17381;51.690;5.270;2023-01-26T05:08:56;102415.88;;;0.32;92.85
30614;BME280;17381;51.690;5.270;2023-01-26T05:11:51;102415.22;;;0.38;92.83
30614;BME280;17381;51.690;5.270;2023-01-26T05:45:35;102415.31;;;0.39;93.00
30614;BME280;17381;51.690;5.270;2023-01-26T05:48:05;102400.56;;;0.37;92.87
30614;BME280;17381;51.690;5.270;2023-01-26T05:50:41;102415.66;;;0.49;92.79
30614;BME280;17381;51.690;5.270;2023-01-26T05:53:27;102420.84;;;0.49;92.68
30614;BME280;17381;51.690;5.270;2023-01-26T05:55:58;102420.84;;;0.49;92.46
30614;BME280;17381;51.690;5.270;2023-01-26T05:58:35;102423.50;;;0.50;92.77
30614;BME280;17381;51.690;5.270;2023-01-26T06:01:11;102428.88;;;0.55;92.65
30614;BME280;17381;51.690;5.270;2023-01-26T06:03:53;102424.66;;;0.57;92.67
30614;BME280;17381;51.690;5.270;2023-01-26T06:06:35;102414.88;;;0.50;92.36
30614;BME280;17381;51.690;5.270;2023-01-26T06:09:27;102419.09;;;0.48;92.58
30614;BME280;17381;51.690;5.270;2023-01-26T06:12:22;102430.72;;;0.57;92.28
30614;BME280;17381;51.690;5.270;2023-01-26T06:15:05;102431.50;;;0.56;92.27
30614;BME280;17381;51.690;5.270;2023-01-26T06:17:47;102438.38;;;0.56;92.47
30614;BME280;17381;51.690;5.270;2023-01-26T06:20:30;102432.34;;;0.55;92.57
30614;BME280;17381;51.690;5.270;2023-01-26T06:23:11;102384.53;;;0.25;92.50
30614;BME280;17381;51.690;5.270;2023-01-26T06:25:42;102440.22;;;0.58;92.40
30614;BME280;17381;51.690;5.270;2023-01-26T06:28:09;102435.13;;;0.60;92.48
30614;BME280;17381;51.690;5.270;2023-01-26T06:30:44;102448.94;;;0.60;92.40
30614;BME280;17381;51.690;5.270;2023-01-26T06:33:29;102352.78;;;0.08;92.44
30614;BME280;17381;51.690;5.270;2023-01-26T06:36:21;102440.41;;;0.63;92.40
30614;BME280;17381;51.690;5.270;2023-01-26T06:38:53;102431.63;;;0.59;92.47
30614;BME280;17381;51.690;5.270;2023-01-26T06:41:19;102441.38;;;0.65;92.42
30614;BME280;17381;51.690;5.270;2023-01-26T06:43:47;102437.06;;;0.65;92.35
30614;BME280;17381;51.690;5.270;2023-01-26T06:46:14;102449.25;;;0.68;92.35
30614;BME280;17381;51.690;5.270;2023-01-26T06:48:44;102453.53;;;0.68;92.38
30614;BME280;17381;51.690;5.270;2023-01-26T06:54:04;102446.78;;;0.71;92.09
30614;BME280;17381;51.690;5.270;2023-01-26T06:57:00;102448.06;;;0.60;92.27
30614;BME280;17381;51.690;5.270;2023-01-26T06:59:53;102452.31;;;0.59;92.72
30614;BME280;17381;51.690;5.270;2023-01-26T07:02:40;102421.47;;;0.43;92.73
30614;BME280;17381;51.690;5.270;2023-01-26T07:05:19;102456.69;;;0.60;92.50
30614;BME280;17381;51.690;5.270;2023-01-26T07:07:49;102455.06;;;0.62;92.36
30614;BME280;17381;51.690;5.270;2023-01-26T07:10:25;102457.75;;;0.65;92.31
30614;BME280;17381;51.690;5.270;2023-01-26T07:12:54;102417.94;;;0.41;92.56
30614;BME280;17381;51.690;5.270;2023-01-26T07:15:34;102455.84;;;0.61;92.52
30614;BME280;17381;51.690;5.270;2023-01-26T07:18:02;102436.75;;;0.58;92.40
30614;BME280;17381;51.690;5.270;2023-01-26T07:20:38;102453.53;;;0.68;92.49
30614;BME280;17381;51.690;5.270;2023-01-26T07:23:12;102454.41;;;0.68;92.59
30614;BME280;17381;51.690;5.270;2023-01-26T07:25:52;102455.31;;;0.69;92.91
30614;BME280;17381;51.690;5.270;2023-01-26T07:28:22;102451.06;;;0.71;92.92
30614;BME280;17381;51.690;5.270;2023-01-26T07:30:55;102421.13;;;0.55;92.80
30614;BME280;17381;51.690;5.270;2023-01-26T07:33:33;102457.19;;;0.73;92.90
30614;BME280;17381;51.690;5.270;2023-01-26T07:36:11;102460.88;;;0.78;92.86
30614;BME280;17381;51.690;5.270;2023-01-26T07:38:43;102465.13;;;0.77;92.89
30614;BME280;17381;51.690;5.270;2023-01-26T07:41:26;102461.78;;;0.80;93.00
30614;BME280;17381;51.690;5.270;2023-01-26T07:44:16;102474.88;;;0.83;92.97
30614;BME280;17381;51.690;5.270;2023-01-26T07:46:53;102376.78;;;0.25;92.63
30614;BME280;17381;51.690;5.270;2023-01-26T07:49:22;102475.75;;;0.83;92.95
30614;BME280;17381;51.690;5.270;2023-01-26T07:51:53;102476.75;;;0.87;92.73
30614;BME280;17381;51.690;5.270;2023-01-26T07:54:38;102480.28;;;0.89;92.64
30614;BME280;17381;51.690;5.270;2023-01-26T07:57:07;102483.75;;;0.90;92.50
30614;BME280;17381;51.690;5.270;2023-01-26T07:59:34;102492.47;;;0.92;92.55
30614;BME280;17381;51.690;5.270;2023-01-26T08:02:03;102491.69;;;0.94;92.56
30614;BME280;17381;51.690;5.270;2023-01-26T08:04:31;102486.53;;;0.94;92.70
30614;BME280;17381;51.690;5.270;2023-01-26T08:07:03;102489.22;;;0.97;92.39
30614;BME280;17381;51.690;5.270;2023-01-26T08:09:32;102488.28;;;0.95;92.33
30614;BME280;17381;51.690;5.270;2023-01-26T08:12:08;102488.44;;;0.98;92.49
30614;BME280;17381;51.690;5.270;2023-01-26T08:14:43;102475.03;;;0.87;92.61
30614;BME280;17381;51.690;5.270;2023-01-26T08:17:17;102494.69;;;1.03;92.42
30614;BME280;17381;51.690;5.270;2023-01-26T08:19:49;102491.25;;;1.04;92.82
30614;BME280;17381;51.690;5.270;2023-01-26T08:22:24;102454.16;;;0.83;92.80
30614;BME280;17381;51.690;5.270;2023-01-26T08:24:57;102494.03;;;1.09;92.42
30614;BME280;17381;51.690;5.270;2023-01-26T08:27:30;102492.25;;;1.08;92.40
30614;BME280;17381;51.690;5.270;2023-01-26T08:30:17;102475.50;;;0.98;92.55
30614;BME280;17381;51.690;5.270;2023-01-26T08:32:49;102475.34;;;0.95;92.38
30614;BME280;17381;51.690;5.270;2023-01-26T08:35:30;102498.44;;;1.12;92.43
30614;BME280;17381;51.690;5.270;2023-01-26T08:38:01;102484.56;;;1.09;92.20
30614;BME280;17381;51.690;5.270;2023-01-26T08:40:39;102488.97;;;1.12;92.51
30614;BME280;17381;51.690;5.270;2023-01-26T08:43:13;102478.31;;;1.04;92.32
30614;BME280;17381;51.690;5.270;2023-01-26T08:45:39;102499.50;;;1.17;92.56
30614;BME280;17381;51.690;5.270;2023-01-26T08:48:11;102479.25;;;1.06;92.63
30614;BME280;17381;51.690;5.270;2023-01-26T08:50:46;102497.69;;;1.14;92.50
30614;BME280;17381;51.690;5.270;2023-01-26T08:53:12;102493.47;;;1.16;92.38
30614;BME280;17381;51.690;5.270;2023-01-26T08:55:46;102498.91;;;1.24;92.42
30614;BME280;17381;51.690;5.270;2023-01-26T08:58:20;102482.03;;;1.11;92.29
30614;BME280;17381;51.690;5.270;2023-01-26T09:00:48;102492.66;;;1.19;92.62
30614;BME280;17381;51.690;5.270;2023-01-26T09:03:34;102504.28;;;1.28;92.60
30614;BME280;17381;51.690;5.270;2023-01-26T09:06:10;102505.16;;;1.29;92.43
30614;BME280;17381;51.690;5.270;2023-01-26T09:09:01;102504.25;;;1.27;92.59
30614;BME280;17381;51.690;5.270;2023-01-26T09:11:33;102507.88;;;1.32;92.51
30614;BME280;17381;51.690;5.270;2023-01-26T09:13:59;102519.25;;;1.36;92.65
30614;BME280;17381;51.690;5.270;2023-01-26T09:16:25;102516.88;;;1.42;92.86
30614;BME280;17381;51.690;5.270;2023-01-26T09:18:52;102515.19;;;1.42;92.45
30614;BME280;17381;51.690;5.270;2023-01-26T09:21:24;102519.44;;;1.40;92.52
30614;BME280;17381;51.690;5.270;2023-01-26T09:23:50;102517.94;;;1.47;92.72
30614;BME280;17381;51.690;5.270;2023-01-26T09:26:41;102524.13;;;1.50;92.64
30614;BME280;17381;51.690;5.270;2023-01-26T09:29:37;102526.78;;;1.52;93.08
30614;BME280;17381;51.690;5.270;2023-01-26T09:32:11;102459.84;;;1.18;92.70
30614;BME280;17381;51.690;5.270;2023-01-26T09:34:40;102474.06;;;1.29;93.03
30614;BME280;17381;51.690;5.270;2023-01-26T09:37:08;102523.78;;;1.64;92.72
30614;BME280;17381;51.690;5.270;2023-01-26T09:39:45;102515.81;;;1.59;92.96
30614;BME280;17381;51.690;5.270;2023-01-26T09:42:55;102523.97;;;1.68;93.02
30614;BME280;17381;51.690;5.270;2023-01-26T09:45:33;102520.50;;;1.68;92.98
30614;BME280;17381;51.690;5.270;2023-01-26T10:08:53;102517.16;;;2.18;93.72
30614;BME280;17381;51.690;5.270;2023-01-26T10:11:36;102524.53;;;2.32;94.26
30614;BME280;17381;51.690;5.270;2023-01-26T10:14:11;102527.75;;;2.49;93.88
30614;BME280;17381;51.690;5.270;2023-01-26T10:16:47;102526.47;;;2.63;94.48
30614;BME280;17381;51.690;5.270;2023-01-26T10:19:33;102531.56;;;2.86;93.94
30614;BME280;17381;51.690;5.270;2023-01-26T10:25:13;102515.25;;;3.15;94.12
30614;BME280;17381;51.690;5.270;2023-01-26T10:28:16;102530.94;;;3.47;94.51
30614;BME280;17381;51.690;5.270;2023-01-26T10:30:51;102528.97;;;3.67;94.50
30614;BME280;17381;51.690;5.270;2023-01-26T10:33:35;102471.88;;;3.41;93.90
30614;BME280;17381;51.690;5.270;2023-01-26T10:36:27;102460.22;;;3.28;93.62
30614;BME280;17381;51.690;5.270;2023-01-26T10:39:08;102515.91;;;3.65;94.18
30614;BME280;17381;51.690;5.270;2023-01-26T10:42:02;102523.88;;;3.71;94.43
30614;BME280;17381;51.690;5.270;2023-01-26T10:44:54;102518.47;;;3.94;94.53
30614;BME280;17381;51.690;5.270;2023-01-26T10:47:31;102515.28;;;4.04;94.34
30614;BME280;17381;51.690;5.270;2023-01-26T10:50:21;102506.84;;;4.11;94.40
30614;BME280;17381;51.690;5.270;2023-01-26T10:53:24;102505.31;;;4.20;94.08
30614;BME280;17381;51.690;5.270;2023-01-26T10:56:14;102505.00;;;4.39;94.26
30614;BME280;17381;51.690;5.270;2023-01-26T10:59:01;102513.03;;;5.18;94.65
30614;BME280;17381;51.690;5.270;2023-01-26T11:01:53;102503.97;;;6.22;94.59
30614;BME280;17381;51.690;5.270;2023-01-26T11:04:28;102499.97;;;6.91;93.12
30614;BME280;17381;51.690;5.270;2023-01-26T11:06:54;102497.81;;;7.21;92.34
30614;BME280;17381;51.690;5.270;2023-01-26T11:09:28;102505.59;;;7.79;89.72
30614;BME280;17381;51.690;5.270;2023-01-26T11:12:07;102503.56;;;8.30;87.09
30614;BME280;17381;51.690;5.270;2023-01-26T11:14:58;102506.81;;;8.94;84.51
30614;BME280;17381;51.690;5.270;2023-01-26T11:17:47;102475.66;;;9.41;81.93
30614;BME280;17381;51.690;5.270;2023-01-26T11:26:20;102502.91;;;9.67;79.38
30614;BME280;17381;51.690;5.270;2023-01-26T11:32:11;102507.13;;;9.37;76.80
30614;BME280;17381;51.690;5.270;2023-01-26T11:37:48;102452.75;;;9.15;76.63
30614;BME280;17381;51.690;5.270;2023-01-26T11:47:27;102485.03;;;9.05;76.00
30614;BME280;17381;51.690;5.270;2023-01-26T12:00:52;102470.47;;;8.38;78.03
30614;BME280;17381;51.690;5.270;2023-01-26T12:06:39;102473.91;;;9.47;77.70
30614;BME280;17381;51.690;5.270;2023-01-26T12:11:56;102468.78;;;9.69;75.29
30614;BME280;17381;51.690;5.270;2023-01-26T12:26:34;102439.19;;;10.20;73.19
30614;BME280;17381;51.690;5.270;2023-01-26T12:32:10;102444.16;;;11.92;71.92
30614;BME280;17381;51.690;5.270;2023-01-26T12:34:42;102434.97;;;12.53;70.19
30614;BME280;17381;51.690;5.270;2023-01-26T12:40:18;102433.16;;;13.46;65.52
30614;BME280;17381;51.690;5.270;2023-01-26T12:45:34;102417.50;;;12.38;63.34
30614;BME280;17381;51.690;5.270;2023-01-26T12:48:36;102407.44;;;11.57;64.74
30614;BME280;17381;51.690;5.270;2023-01-26T12:51:15;102404.09;;;11.09;65.99
30614;BME280;17381;51.690;5.270;2023-01-26T12:53:56;102410.28;;;10.91;66.55
30614;BME280;17381;51.690;5.270;2023-01-26T12:56:40;102411.06;;;11.18;66.73
30614;BME280;17381;51.690;5.270;2023-01-26T12:59:22;102409.22;;;11.50;66.21
30614;BME280;17381;51.690;5.270;2023-01-26T13:02:14;102415.44;;;11.25;65.54
30614;BME280;17381;51.690;5.270;2023-01-26T13:04:54;102412.03;;;10.92;66.67
30614;BME280;17381;51.690;5.270;2023-01-26T13:07:32;102415.56;;;10.63;66.86
30614;BME280;17381;51.690;5.270;2023-01-26T13:10:21;102410.31;;;10.51;67.60
30614;BME280;17381;51.690;5.270;2023-01-26T13:15:23;102399.72;;;10.94;67.63
30614;BME280;17381;51.690;5.270;2023-01-26T13:20:43;102406.72;;;11.18;67.36
30614;BME280;17381;51.690;5.270;2023-01-26T13:23:37;102409.41;;;10.87;67.46
30614;BME280;17381;51.690;5.270;2023-01-26T13:29:30;102396.06;;;11.49;65.28
30614;BME280;17381;51.690;5.270;2023-01-26T13:34:40;102395.00;;;11.84;65.41
30614;BME280;17381;51.690;5.270;2023-01-26T13:37:33;102389.88;;;11.53;65.39
30614;BME280;17381;51.690;5.270;2023-01-26T13:40:33;102404.06;;;11.17;64.10
30614;BME280;17381;51.690;5.270;2023-01-26T13:43:22;102398.88;;;10.81;65.47
30614;BME280;17381;51.690;5.270;2023-01-26T13:48:54;102369.06;;;10.04;66.54
30614;BME280;17381;51.690;5.270;2023-01-26T13:51:32;102401.47;;;10.00;66.90
30614;BME280;17381;51.690;5.270;2023-01-26T13:54:12;102404.06;;;9.88;67.13
30614;BME280;17381;51.690;5.270;2023-01-26T13:56:40;102404.00;;;9.58;66.99
30614;BME280;17381;51.690;5.270;2023-01-26T13:59:14;102404.72;;;9.28;66.42
30614;BME280;17381;51.690;5.270;2023-01-26T14:02:10;102400.47;;;9.52;67.34
30614;BME280;17381;51.690;5.270;2023-01-26T14:04:52;102414.41;;;9.45;67.68
30614;BME280;17381;51.690;5.270;2023-01-26T14:07:41;102423.13;;;9.34;67.93
30614;BME280;17381;51.690;5.270;2023-01-26T14:10:20;102415.09;;;9.08;67.61
30614;BME280;17381;51.690;5.270;2023-01-26T14:12:52;102420.25;;;8.90;68.00
30614;BME280;17381;51.690;5.270;2023-01-26T14:15:32;102415.75;;;8.75;68.42
30614;BME280;17381;51.690;5.270;2023-01-26T14:18:00;102420.91;;;8.60;68.08
30614;BME280;17381;51.690;5.270;2023-01-26T14:20:35;102403.28;;;8.40;67.91
30614;BME280;17381;51.690;5.270;2023-01-26T14:23:17;102416.31;;;8.37;68.23
30614;BME280;17381;51.690;5.270;2023-01-26T14:26:11;102424.94;;;8.25;69.40
30614;BME280;17381;51.690;5.270;2023-01-26T14:28:42;102416.97;;;8.15;69.93
30614;BME280;17381;51.690;5.270;2023-01-26T14:31:25;102415.19;;;8.12;69.67
30614;BME280;17381;51.690;5.270;2023-01-26T14:33:57;102420.56;;;8.26;70.74
30614;BME280;17381;51.690;5.270;2023-01-26T14:36:30;102364.69;;;8.25;70.77
30614;BME280;17381;51.690;5.270;2023-01-26T14:39:19;102416.66;;;8.80;71.13
30614;BME280;17381;51.690;5.270;2023-01-26T14:41:48;102420.16;;;8.78;69.69
30614;BME280;17381;51.690;5.270;2023-01-26T14:44:14;102427.13;;;8.72;69.85
30614;BME280;17381;51.690;5.270;2023-01-26T14:47:11;102371.88;;;8.46;69.40
30614;BME280;17381;51.690;5.270;2023-01-26T14:50:24;102407.78;;;8.55;69.53
30614;BME280;17381;51.690;5.270;2023-01-26T14:53:03;102423.47;;;8.54;70.11
30614;BME280;17381;51.690;5.270;2023-01-26T14:55:38;102359.28;;;8.05;69.44
30614;BME280;17381;51.690;5.270;2023-01-26T14:58:18;102431.09;;;8.29;70.05
30614;BME280;17381;51.690;5.270;2023-01-26T15:00:49;102416.97;;;8.15;70.35
30614;BME280;17381;51.690;5.270;2023-01-26T15:03:22;102416.81;;;7.99;70.36
30614;BME280;17381;51.690;5.270;2023-01-26T15:06:03;102409.66;;;7.83;70.72
30614;BME280;17381;51.690;5.270;2023-01-26T15:08:30;102368.16;;;7.40;71.16
30614;BME280;17381;51.690;5.270;2023-01-26T15:11:02;102423.47;;;7.71;71.67
30614;BME280;17381;51.690;5.270;2023-01-26T15:13:53;102421.66;;;7.62;71.51
30614;BME280;17381;51.690;5.270;2023-01-26T15:16:29;102420.66;;;7.53;71.42
30614;BME280;17381;51.690;5.270;2023-01-26T15:19:04;102421.34;;;7.39;71.67
30614;BME280;17381;51.690;5.270;2023-01-26T15:21:39;102359.78;;;6.97;72.47
30614;BME280;17381;51.690;5.270;2023-01-26T15:24:16;102419.44;;;7.26;72.54
30614;BME280;17381;51.690;5.270;2023-01-26T15:26:44;102420.41;;;7.34;73.25
30614;BME280;17381;51.690;5.270;2023-01-26T15:29:31;102423.09;;;7.39;72.70
30614;BME280;17381;51.690;5.270;2023-01-26T15:32:24;102426.56;;;7.36;73.33
30614;BME280;17381;51.690;5.270;2023-01-26T15:35:03;102401.03;;;7.20;73.57
30614;BME280;17381;51.690;5.270;2023-01-26T15:37:32;102430.84;;;7.31;74.04
30614;BME280;17381;51.690;5.270;2023-01-26T15:40:04;102385.13;;;7.05;73.92
30614;BME280;17381;51.690;5.270;2023-01-26T15:42:31;102394.84;;;7.12;74.14
30614;BME280;17381;51.690;5.270;2023-01-26T15:44:58;102433.44;;;7.30;74.28
30614;BME280;17381;51.690;5.270;2023-01-26T15:47:25;102437.78;;;7.29;74.46
30614;BME280;17381;51.690;5.270;2023-01-26T15:49:54;102437.75;;;7.28;74.44
30614;BME280;17381;51.690;5.270;2023-01-26T15:52:27;102428.13;;;7.24;75.00
30614;BME280;17381;51.690;5.270;2023-01-26T15:54:58;102442.09;;;7.26;74.83
30614;BME280;17381;51.690;5.270;2023-01-26T15:57:31;102436.81;;;7.22;74.69
30614;BME280;17381;51.690;5.270;2023-01-26T16:00:12;102437.66;;;7.20;74.80
30614;BME280;17381;51.690;5.270;2023-01-26T16:25:37;102463.28;;;6.86;76.57
30614;BME280;17381;51.690;5.270;2023-01-26T16:28:12;102470.25;;;6.86;76.64
30614;BME280;17381;51.690;5.270;2023-01-26T16:30:38;102412.28;;;6.53;76.69
30614;BME280;17381;51.690;5.270;2023-01-26T16:44:54;102421.63;;;6.41;77.61
30614;BME280;17381;51.690;5.270;2023-01-26T17:12:10;102494.94;;;6.53;78.00
30614;BME280;17381;51.690;5.270;2023-01-26T17:14:36;102488.72;;;6.43;77.89
30614;BME280;17381;51.690;5.270;2023-01-26T17:17:05;102484.34;;;6.44;77.03
30614;BME280;17381;51.690;5.270;2023-01-26T17:19:39;102434.19;;;6.13;76.80
30614;BME280;17381;51.690;5.270;2023-01-26T17:22:08;102495.56;;;6.38;76.40
30614;BME280;17381;51.690;5.270;2023-01-26T17:24:38;102479.88;;;6.37;76.07
30614;BME280;17381;51.690;5.270;2023-01-26T17:27:08;102419.16;;;6.00;76.40
30614;BME280;17381;51.690;5.270;2023-01-26T17:29:38;102479.81;;;6.33;76.53
30614;BME280;17381;51.690;5.270;2023-01-26T17:32:09;102484.19;;;6.34;76.36
30614;BME280;17381;51.690;5.270;2023-01-26T17:34:37;102479.78;;;6.32;76.76
30614;BME280;17381;51.690;5.270;2023-01-26T17:37:06;102477.97;;;6.28;76.68
30614;BME280;17381;51.690;5.270;2023-01-26T17:39:34;102472.75;;;6.28;76.94
30614;BME280;17381;51.690;5.270;2023-01-26T17:42:01;102493.75;;;6.34;77.12
30614;BME280;17381;51.690;5.270;2023-01-26T18:20:46;102473.03;;;5.98;78.75
30614;BME280;17381;51.690;5.270;2023-01-26T18:54:58;102472.03;;;5.93;79.27
30614;BME280;17381;51.690;5.270;2023-01-26T19:01:50;102462.38;;;5.88;78.86
30614;BME280;17381;51.690;5.270;2023-01-26T19:33:37;102484.16;;;5.89;78.98
30614;BME280;17381;51.690;5.270;2023-01-26T19:36:53;102477.25;;;5.93;78.54
30614;BME280;17381;51.690;5.270;2023-01-26T19:55:48;102490.25;;;5.89;78.10
30614;BME280;17381;51.690;5.270;2023-01-26T19:58:40;102487.59;;;5.88;77.90
30614;BME280;17381;51.690;5.270;2023-01-26T20:01:51;102489.44;;;5.92;78.17
30614;BME280;17381;51.690;5.270;2023-01-26T20:04:32;102487.66;;;5.89;78.17
30614;BME280;17381;51.690;5.270;2023-01-26T22:30:57;102444.56;;;5.25;83.47
30614;BME280;17381;51.690;5.270;2023-01-26T22:46:41;102460.25;;;5.28;83.86
30614;BME280;17381;51.690;5.270;2023-01-26T22:49:45;102445.47;;;5.27;83.94
30614;BME280;17381;51.690;5.270;2023-01-26T23:18:25;102445.47;;;4.89;84.14
30614;BME280;17381;51.690;5.270;2023-01-26T23:22:03;102465.00;;;5.07;83.73
30614;BME280;17381;51.690;5.270;2023-01-26T23:48:01;102466.63;;;5.03;83.42
30614;BME280;17381;51.690;5.270;2023-01-26T23:51:06;102462.22;;;5.00;83.44
30614;BME280;17381;51.690;5.270;2023-01-26T23:54:17;102467.53;;;5.03;83.82
30614;BME280;17381;51.690;5.270;2023-01-26T23:57:35;102467.59;;;5.07;83.63
